sensor_id;sensor_type;location;lat;lon;timestamp;P1;durP1;ratioP1;P2;durP2;ratioP2
48578;SDS011;34357;51.948;6.132;2022-09-28T00:01:52;13.75;;;11.80;;
48578;SDS011;34357;51.948;6.132;2022-09-28T00:04:18;15.98;;;11.85;;
48578;SDS011;34357;51.948;6.132;2022-09-28T00:06:45;14.25;;;12.25;;
48578;SDS011;34357;51.948;6.132;2022-09-28T00:09:11;15.10;;;13.50;;
48578;SDS011;34357;51.948;6.132;2022-09-28T00:11:38;16.33;;;13.68;;
48578;SDS011;34357;51.948;6.132;2022-09-28T00:14:04;18.08;;;15.43;;
48578;SDS011;34357;51.948;6.132;2022-09-28T00:16:32;18.10;;;15.40;;
48578;SDS011;34357;51.948;6.132;2022-09-28T00:19:00;20.67;;;16.40;;
48578;SDS011;34357;51.948;6.132;2022-09-28T00:21:28;19.40;;;16.33;;
48578;SDS011;34357;51.948;6.132;2022-09-28T00:23:57;21.27;;;17.23;;
48578;SDS011;34357;51.948;6.132;2022-09-28T00:26:49;17.75;;;14.98;;
48578;SDS011;34357;51.948;6.132;2022-09-28T00:31:52;19.23;;;15.60;;
48578;SDS011;34357;51.948;6.132;2022-09-28T00:36:50;20.65;;;16.48;;
48578;SDS011;34357;51.948;6.132;2022-09-28T00:39:16;18.77;;;15.68;;
48578;SDS011;34357;51.948;6.132;2022-09-28T00:41:43;19.67;;;15.65;;
48578;SDS011;34357;51.948;6.132;2022-09-28T00:47:00;18.35;;;15.55;;
48578;SDS011;34357;51.948;6.132;2022-09-28T00:49:36;18.58;;;14.35;;
48578;SDS011;34357;51.948;6.132;2022-09-28T00:52:10;22.10;;;16.58;;
48578;SDS011;34357;51.948;6.132;2022-09-28T00:54:40;22.27;;;17.50;;
48578;SDS011;34357;51.948;6.132;2022-09-28T00:57:09;22.58;;;17.48;;
48578;SDS011;34357;51.948;6.132;2022-09-28T00:59:35;21.50;;;16.13;;
48578;SDS011;34357;51.948;6.132;2022-09-28T01:02:02;22.75;;;17.15;;
48578;SDS011;34357;51.948;6.132;2022-09-28T01:04:28;19.20;;;15.90;;
48578;SDS011;34357;51.948;6.132;2022-09-28T01:06:56;18.98;;;14.75;;
48578;SDS011;34357;51.948;6.132;2022-09-28T01:09:24;16.25;;;14.05;;
48578;SDS011;34357;51.948;6.132;2022-09-28T01:11:51;17.98;;;14.68;;
48578;SDS011;34357;51.948;6.132;2022-09-28T01:14:17;18.90;;;15.23;;
48578;SDS011;34357;51.948;6.132;2022-09-28T01:28:19;23.33;;;18.17;;
48578;SDS011;34357;51.948;6.132;2022-09-28T01:30:52;25.17;;;19.73;;
48578;SDS011;34357;51.948;6.132;2022-09-28T01:33:41;25.67;;;19.48;;
48578;SDS011;34357;51.948;6.132;2022-09-28T01:36:21;23.60;;;20.00;;
48578;SDS011;34357;51.948;6.132;2022-09-28T01:39:15;23.80;;;19.98;;
48578;SDS011;34357;51.948;6.132;2022-09-28T01:41:49;25.77;;;21.35;;
48578;SDS011;34357;51.948;6.132;2022-09-28T01:44:18;27.00;;;20.52;;
48578;SDS011;34357;51.948;6.132;2022-09-28T01:46:46;25.38;;;19.75;;
48578;SDS011;34357;51.948;6.132;2022-09-28T01:54:25;24.42;;;20.20;;
48578;SDS011;34357;51.948;6.132;2022-09-28T01:57:16;24.88;;;20.98;;
48578;SDS011;34357;51.948;6.132;2022-09-28T01:59:51;25.70;;;20.58;;
48578;SDS011;34357;51.948;6.132;2022-09-28T02:02:25;22.23;;;19.05;;
48578;SDS011;34357;51.948;6.132;2022-09-28T02:04:59;22.17;;;17.52;;
48578;SDS011;34357;51.948;6.132;2022-09-28T02:07:36;24.25;;;18.45;;
48578;SDS011;34357;51.948;6.132;2022-09-28T02:10:18;25.92;;;18.50;;
48578;SDS011;34357;51.948;6.132;2022-09-28T02:12:48;21.80;;;18.85;;
48578;SDS011;34357;51.948;6.132;2022-09-28T02:15:36;22.60;;;16.40;;
48578;SDS011;34357;51.948;6.132;2022-09-28T02:18:22;21.08;;;16.80;;
48578;SDS011;34357;51.948;6.132;2022-09-28T02:20:52;24.70;;;19.27;;
48578;SDS011;34357;51.948;6.132;2022-09-28T02:23:27;22.58;;;19.00;;
48578;SDS011;34357;51.948;6.132;2022-09-28T02:25:59;24.30;;;20.08;;
48578;SDS011;34357;51.948;6.132;2022-09-28T02:28:27;23.77;;;19.27;;
48578;SDS011;34357;51.948;6.132;2022-09-28T02:30:54;24.35;;;20.92;;
48578;SDS011;34357;51.948;6.132;2022-09-28T02:33:30;23.50;;;20.67;;
48578;SDS011;34357;51.948;6.132;2022-09-28T02:36:00;22.75;;;19.95;;
48578;SDS011;34357;51.948;6.132;2022-09-28T02:38:31;22.17;;;19.70;;
48578;SDS011;34357;51.948;6.132;2022-09-28T02:41:06;26.08;;;19.70;;
48578;SDS011;34357;51.948;6.132;2022-09-28T03:08:39;25.35;;;19.85;;
48578;SDS011;34357;51.948;6.132;2022-09-28T03:11:15;25.15;;;19.80;;
48578;SDS011;34357;51.948;6.132;2022-09-28T03:13:49;23.27;;;19.17;;
48578;SDS011;34357;51.948;6.132;2022-09-28T03:16:18;23.77;;;19.65;;
48578;SDS011;34357;51.948;6.132;2022-09-28T03:18:46;21.52;;;19.13;;
48578;SDS011;34357;51.948;6.132;2022-09-28T03:21:13;21.33;;;19.02;;
48578;SDS011;34357;51.948;6.132;2022-09-28T03:23:40;22.63;;;18.63;;
48578;SDS011;34357;51.948;6.132;2022-09-28T03:26:07;23.05;;;18.60;;
48578;SDS011;34357;51.948;6.132;2022-09-28T03:28:36;23.05;;;18.08;;
48578;SDS011;34357;51.948;6.132;2022-09-28T03:31:03;19.85;;;16.73;;
48578;SDS011;34357;51.948;6.132;2022-09-28T03:33:29;19.92;;;17.58;;
48578;SDS011;34357;51.948;6.132;2022-09-28T03:35:55;25.75;;;18.23;;
48578;SDS011;34357;51.948;6.132;2022-09-28T03:38:22;21.33;;;18.02;;
48578;SDS011;34357;51.948;6.132;2022-09-28T03:40:51;24.63;;;17.90;;
48578;SDS011;34357;51.948;6.132;2022-09-28T03:43:22;20.08;;;17.80;;
48578;SDS011;34357;51.948;6.132;2022-09-28T03:48:24;23.15;;;18.48;;
48578;SDS011;34357;51.948;6.132;2022-09-28T03:50:52;21.35;;;17.52;;
48578;SDS011;34357;51.948;6.132;2022-09-28T03:53:22;20.30;;;18.03;;
48578;SDS011;34357;51.948;6.132;2022-09-28T03:55:48;22.90;;;17.45;;
48578;SDS011;34357;51.948;6.132;2022-09-28T03:58:17;21.45;;;16.83;;
48578;SDS011;34357;51.948;6.132;2022-09-28T04:00:45;23.33;;;17.65;;
48578;SDS011;34357;51.948;6.132;2022-09-28T04:03:11;22.70;;;18.08;;
48578;SDS011;34357;51.948;6.132;2022-09-28T04:05:37;20.27;;;17.27;;
48578;SDS011;34357;51.948;6.132;2022-09-28T04:08:03;23.77;;;18.80;;
48578;SDS011;34357;51.948;6.132;2022-09-28T04:10:29;21.52;;;16.92;;
48578;SDS011;34357;51.948;6.132;2022-09-28T04:12:55;19.75;;;16.02;;
48578;SDS011;34357;51.948;6.132;2022-09-28T04:15:25;19.88;;;16.25;;
48578;SDS011;34357;51.948;6.132;2022-09-28T04:17:51;19.65;;;16.00;;
48578;SDS011;34357;51.948;6.132;2022-09-28T04:20:34;17.98;;;16.08;;
48578;SDS011;34357;51.948;6.132;2022-09-28T04:23:04;19.90;;;16.40;;
48578;SDS011;34357;51.948;6.132;2022-09-28T04:25:30;20.58;;;15.82;;
48578;SDS011;34357;51.948;6.132;2022-09-28T04:27:56;21.15;;;16.55;;
48578;SDS011;34357;51.948;6.132;2022-09-28T04:30:41;17.67;;;15.77;;
48578;SDS011;34357;51.948;6.132;2022-09-28T04:33:06;18.20;;;15.55;;
48578;SDS011;34357;51.948;6.132;2022-09-28T04:35:32;21.73;;;16.42;;
48578;SDS011;34357;51.948;6.132;2022-09-28T04:38:00;19.85;;;15.85;;
48578;SDS011;34357;51.948;6.132;2022-09-28T04:40:26;18.45;;;16.20;;
48578;SDS011;34357;51.948;6.132;2022-09-28T04:42:52;18.65;;;15.15;;
48578;SDS011;34357;51.948;6.132;2022-09-28T04:45:19;19.60;;;16.20;;
48578;SDS011;34357;51.948;6.132;2022-09-28T04:47:45;18.77;;;16.20;;
48578;SDS011;34357;51.948;6.132;2022-09-28T04:50:20;18.35;;;15.18;;
48578;SDS011;34357;51.948;6.132;2022-09-28T04:53:06;17.80;;;14.32;;
48578;SDS011;34357;51.948;6.132;2022-09-28T04:55:32;17.33;;;15.48;;
48578;SDS011;34357;51.948;6.132;2022-09-28T04:57:58;18.35;;;15.05;;
48578;SDS011;34357;51.948;6.132;2022-09-28T05:00:28;20.05;;;15.38;;
48578;SDS011;34357;51.948;6.132;2022-09-28T05:03:05;20.48;;;15.48;;
48578;SDS011;34357;51.948;6.132;2022-09-28T05:06:02;18.20;;;15.25;;
48578;SDS011;34357;51.948;6.132;2022-09-28T05:08:39;17.75;;;14.80;;
48578;SDS011;34357;51.948;6.132;2022-09-28T05:11:06;19.48;;;14.68;;
48578;SDS011;34357;51.948;6.132;2022-09-28T05:13:38;23.73;;;15.23;;
48578;SDS011;34357;51.948;6.132;2022-09-28T05:16:10;20.48;;;14.98;;
48578;SDS011;34357;51.948;6.132;2022-09-28T05:18:57;23.27;;;14.63;;
48578;SDS011;34357;51.948;6.132;2022-09-28T05:21:23;21.25;;;14.85;;
48578;SDS011;34357;51.948;6.132;2022-09-28T05:23:50;21.48;;;15.63;;
48578;SDS011;34357;51.948;6.132;2022-09-28T05:26:17;23.77;;;14.55;;
48578;SDS011;34357;51.948;6.132;2022-09-28T05:28:43;17.27;;;15.02;;
48578;SDS011;34357;51.948;6.132;2022-09-28T05:31:27;19.35;;;14.60;;
48578;SDS011;34357;51.948;6.132;2022-09-28T05:34:08;21.33;;;15.38;;
48578;SDS011;34357;51.948;6.132;2022-09-28T05:36:33;23.60;;;16.50;;
48578;SDS011;34357;51.948;6.132;2022-09-28T05:39:00;22.83;;;16.55;;
48578;SDS011;34357;51.948;6.132;2022-09-28T05:41:28;20.10;;;15.93;;
48578;SDS011;34357;51.948;6.132;2022-09-28T05:43:54;21.60;;;16.63;;
48578;SDS011;34357;51.948;6.132;2022-09-28T05:46:20;21.13;;;16.40;;
48578;SDS011;34357;51.948;6.132;2022-09-28T05:48:47;17.50;;;15.18;;
48578;SDS011;34357;51.948;6.132;2022-09-28T05:51:16;19.38;;;15.77;;
48578;SDS011;34357;51.948;6.132;2022-09-28T05:53:41;18.67;;;15.80;;
48578;SDS011;34357;51.948;6.132;2022-09-28T05:56:07;17.15;;;15.35;;
48578;SDS011;34357;51.948;6.132;2022-09-28T05:58:35;19.60;;;15.30;;
48578;SDS011;34357;51.948;6.132;2022-09-28T06:01:00;22.08;;;15.43;;
48578;SDS011;34357;51.948;6.132;2022-09-28T06:03:28;17.65;;;14.63;;
48578;SDS011;34357;51.948;6.132;2022-09-28T06:05:53;21.00;;;13.63;;
48578;SDS011;34357;51.948;6.132;2022-09-28T06:08:19;14.10;;;12.43;;
48578;SDS011;34357;51.948;6.132;2022-09-28T06:10:57;17.80;;;12.25;;
48578;SDS011;34357;51.948;6.132;2022-09-28T06:13:24;14.55;;;12.50;;
48578;SDS011;34357;51.948;6.132;2022-09-28T06:15:51;18.58;;;12.30;;
48578;SDS011;34357;51.948;6.132;2022-09-28T06:18:17;16.33;;;12.40;;
48578;SDS011;34357;51.948;6.132;2022-09-28T06:21:06;15.25;;;11.63;;
48578;SDS011;34357;51.948;6.132;2022-09-28T06:23:39;14.95;;;11.88;;
48578;SDS011;34357;51.948;6.132;2022-09-28T06:26:05;13.55;;;11.48;;
48578;SDS011;34357;51.948;6.132;2022-09-28T06:28:31;14.73;;;12.60;;
48578;SDS011;34357;51.948;6.132;2022-09-28T06:31:00;18.88;;;12.45;;
48578;SDS011;34357;51.948;6.132;2022-09-28T06:33:27;18.17;;;11.98;;
48578;SDS011;34357;51.948;6.132;2022-09-28T06:35:54;12.82;;;9.95;;
48578;SDS011;34357;51.948;6.132;2022-09-28T06:38:22;12.32;;;8.15;;
48578;SDS011;34357;51.948;6.132;2022-09-28T06:40:48;13.23;;;7.57;;
48578;SDS011;34357;51.948;6.132;2022-09-28T06:43:14;11.07;;;7.28;;
48578;SDS011;34357;51.948;6.132;2022-09-28T06:46:07;12.90;;;7.82;;
48578;SDS011;34357;51.948;6.132;2022-09-28T06:48:49;9.70;;;7.30;;
48578;SDS011;34357;51.948;6.132;2022-09-28T06:51:29;7.15;;;6.10;;
48578;SDS011;34357;51.948;6.132;2022-09-28T06:53:56;10.43;;;6.57;;
48578;SDS011;34357;51.948;6.132;2022-09-28T06:56:40;12.68;;;6.28;;
48578;SDS011;34357;51.948;6.132;2022-09-28T06:59:06;6.95;;;6.20;;
48578;SDS011;34357;51.948;6.132;2022-09-28T07:01:33;7.18;;;5.55;;
48578;SDS011;34357;51.948;6.132;2022-09-28T07:04:09;7.88;;;5.13;;
48578;SDS011;34357;51.948;6.132;2022-09-28T07:06:53;7.05;;;5.05;;
48578;SDS011;34357;51.948;6.132;2022-09-28T07:09:37;7.55;;;4.90;;
48578;SDS011;34357;51.948;6.132;2022-09-28T07:12:13;8.13;;;5.30;;
48578;SDS011;34357;51.948;6.132;2022-09-28T07:14:45;8.43;;;4.97;;
48578;SDS011;34357;51.948;6.132;2022-09-28T07:17:13;5.78;;;4.90;;
48578;SDS011;34357;51.948;6.132;2022-09-28T07:19:40;10.95;;;5.15;;
48578;SDS011;34357;51.948;6.132;2022-09-28T07:22:06;8.20;;;4.90;;
48578;SDS011;34357;51.948;6.132;2022-09-28T07:24:32;5.78;;;3.88;;
48578;SDS011;34357;51.948;6.132;2022-09-28T07:27:16;7.93;;;4.40;;
48578;SDS011;34357;51.948;6.132;2022-09-28T07:30:00;9.20;;;6.47;;
48578;SDS011;34357;51.948;6.132;2022-09-28T07:32:40;9.07;;;5.70;;
48578;SDS011;34357;51.948;6.132;2022-09-28T07:35:48;4.30;;;3.90;;
48578;SDS011;34357;51.948;6.132;2022-09-28T07:38:15;5.68;;;4.18;;
48578;SDS011;34357;51.948;6.132;2022-09-28T07:40:40;5.97;;;4.55;;
48578;SDS011;34357;51.948;6.132;2022-09-28T07:43:25;8.73;;;5.20;;
48578;SDS011;34357;51.948;6.132;2022-09-28T07:45:51;6.78;;;4.53;;
48578;SDS011;34357;51.948;6.132;2022-09-28T07:48:19;10.25;;;3.90;;
48578;SDS011;34357;51.948;6.132;2022-09-28T07:53:37;4.82;;;3.47;;
48578;SDS011;34357;51.948;6.132;2022-09-28T07:56:21;4.70;;;3.50;;
48578;SDS011;34357;51.948;6.132;2022-09-28T07:58:58;4.95;;;3.50;;
48578;SDS011;34357;51.948;6.132;2022-09-28T08:01:27;12.43;;;4.20;;
48578;SDS011;34357;51.948;6.132;2022-09-28T08:03:54;5.13;;;3.40;;
48578;SDS011;34357;51.948;6.132;2022-09-28T08:06:21;8.18;;;3.95;;
48578;SDS011;34357;51.948;6.132;2022-09-28T08:08:47;6.82;;;3.20;;
48578;SDS011;34357;51.948;6.132;2022-09-28T08:11:16;5.55;;;3.25;;
48578;SDS011;34357;51.948;6.132;2022-09-28T08:14:05;5.43;;;3.47;;
48578;SDS011;34357;51.948;6.132;2022-09-28T08:16:49;5.57;;;3.72;;
48578;SDS011;34357;51.948;6.132;2022-09-28T08:19:29;5.53;;;3.38;;
48578;SDS011;34357;51.948;6.132;2022-09-28T08:22:16;4.75;;;3.00;;
48578;SDS011;34357;51.948;6.132;2022-09-28T08:24:44;3.25;;;1.95;;
48578;SDS011;34357;51.948;6.132;2022-09-28T08:27:10;2.85;;;1.60;;
48578;SDS011;34357;51.948;6.132;2022-09-28T08:29:38;2.78;;;1.58;;
48578;SDS011;34357;51.948;6.132;2022-09-28T08:32:25;2.83;;;1.38;;
48578;SDS011;34357;51.948;6.132;2022-09-28T08:35:09;1.90;;;1.42;;
48578;SDS011;34357;51.948;6.132;2022-09-28T08:37:48;6.15;;;1.38;;
48578;SDS011;34357;51.948;6.132;2022-09-28T08:41:17;2.80;;;1.17;;
48578;SDS011;34357;51.948;6.132;2022-09-28T08:46:36;3.85;;;1.20;;
48578;SDS011;34357;51.948;6.132;2022-09-28T08:49:41;6.50;;;1.30;;
48578;SDS011;34357;51.948;6.132;2022-09-28T08:52:18;2.55;;;1.10;;
48578;SDS011;34357;51.948;6.132;2022-09-28T08:55:01;2.95;;;0.82;;
48578;SDS011;34357;51.948;6.132;2022-09-28T08:57:57;6.13;;;1.30;;
48578;SDS011;34357;51.948;6.132;2022-09-28T09:00:46;1.55;;;1.00;;
48578;SDS011;34357;51.948;6.132;2022-09-28T09:03:22;6.45;;;1.23;;
48578;SDS011;34357;51.948;6.132;2022-09-28T09:17:46;3.78;;;1.00;;
48578;SDS011;34357;51.948;6.132;2022-09-28T09:25:41;2.17;;;0.68;;
48578;SDS011;34357;51.948;6.132;2022-09-28T09:28:30;4.65;;;0.70;;
48578;SDS011;34357;51.948;6.132;2022-09-28T09:31:07;2.33;;;0.98;;
48578;SDS011;34357;51.948;6.132;2022-09-28T09:33:56;4.05;;;1.10;;
48578;SDS011;34357;51.948;6.132;2022-09-28T09:43:05;2.13;;;0.70;;
48578;SDS011;34357;51.948;6.132;2022-09-28T09:48:54;1.50;;;0.70;;
48578;SDS011;34357;51.948;6.132;2022-09-28T09:54:03;2.05;;;0.82;;
48578;SDS011;34357;51.948;6.132;2022-09-28T09:56:44;1.95;;;0.90;;
48578;SDS011;34357;51.948;6.132;2022-09-28T09:59:39;1.42;;;1.25;;
48578;SDS011;34357;51.948;6.132;2022-09-28T10:02:33;2.80;;;0.93;;
48578;SDS011;34357;51.948;6.132;2022-09-28T10:05:13;2.70;;;0.82;;
48578;SDS011;34357;51.948;6.132;2022-09-28T10:07:55;5.25;;;0.70;;
48578;SDS011;34357;51.948;6.132;2022-09-28T10:10:29;1.27;;;0.50;;
48578;SDS011;34357;51.948;6.132;2022-09-28T10:13:10;4.35;;;0.68;;
48578;SDS011;34357;51.948;6.132;2022-09-28T10:15:37;2.38;;;0.70;;
48578;SDS011;34357;51.948;6.132;2022-09-28T10:18:32;1.02;;;0.50;;
48578;SDS011;34357;51.948;6.132;2022-09-28T10:21:13;2.13;;;0.70;;
48578;SDS011;34357;51.948;6.132;2022-09-28T10:23:54;1.33;;;0.50;;
48578;SDS011;34357;51.948;6.132;2022-09-28T10:26:44;1.92;;;0.60;;
48578;SDS011;34357;51.948;6.132;2022-09-28T10:29:18;3.13;;;0.60;;
48578;SDS011;34357;51.948;6.132;2022-09-28T10:31:51;0.80;;;0.43;;
48578;SDS011;34357;51.948;6.132;2022-09-28T10:34:28;3.55;;;0.52;;
48578;SDS011;34357;51.948;6.132;2022-09-28T10:37:00;1.98;;;0.40;;
48578;SDS011;34357;51.948;6.132;2022-09-28T10:39:45;1.58;;;0.50;;
48578;SDS011;34357;51.948;6.132;2022-09-28T10:42:19;1.17;;;0.60;;
48578;SDS011;34357;51.948;6.132;2022-09-28T10:45:03;3.45;;;0.57;;
48578;SDS011;34357;51.948;6.132;2022-09-28T10:47:45;2.65;;;0.60;;
48578;SDS011;34357;51.948;6.132;2022-09-28T10:50:21;2.00;;;0.40;;
48578;SDS011;34357;51.948;6.132;2022-09-28T10:53:31;4.57;;;0.40;;
48578;SDS011;34357;51.948;6.132;2022-09-28T10:56:20;1.60;;;0.30;;
48578;SDS011;34357;51.948;6.132;2022-09-28T10:58:55;1.70;;;0.50;;
48578;SDS011;34357;51.948;6.132;2022-09-28T11:01:31;2.00;;;0.40;;
48578;SDS011;34357;51.948;6.132;2022-09-28T11:03:59;2.28;;;0.43;;
48578;SDS011;34357;51.948;6.132;2022-09-28T11:06:30;2.13;;;0.60;;
48578;SDS011;34357;51.948;6.132;2022-09-28T11:09:00;2.75;;;0.93;;
48578;SDS011;34357;51.948;6.132;2022-09-28T11:11:33;3.30;;;0.50;;
48578;SDS011;34357;51.948;6.132;2022-09-28T11:14:05;2.20;;;0.40;;
48578;SDS011;34357;51.948;6.132;2022-09-28T11:16:46;2.83;;;0.52;;
48578;SDS011;34357;51.948;6.132;2022-09-28T11:21:46;1.95;;;0.40;;
48578;SDS011;34357;51.948;6.132;2022-09-28T11:24:22;5.55;;;0.70;;
48578;SDS011;34357;51.948;6.132;2022-09-28T11:26:51;7.55;;;0.95;;
48578;SDS011;34357;51.948;6.132;2022-09-28T11:29:44;0.88;;;0.43;;
48578;SDS011;34357;51.948;6.132;2022-09-28T11:32:24;1.33;;;0.60;;
48578;SDS011;34357;51.948;6.132;2022-09-28T11:35:24;1.42;;;0.30;;
48578;SDS011;34357;51.948;6.132;2022-09-28T11:49:35;0.82;;;0.30;;
48578;SDS011;34357;51.948;6.132;2022-09-28T11:52:26;3.58;;;0.30;;
48578;SDS011;34357;51.948;6.132;2022-09-28T11:55:05;2.85;;;0.30;;
48578;SDS011;34357;51.948;6.132;2022-09-28T11:57:54;1.15;;;0.28;;
48578;SDS011;34357;51.948;6.132;2022-09-28T12:00:26;3.47;;;0.93;;
48578;SDS011;34357;51.948;6.132;2022-09-28T12:03:03;0.52;;;0.40;;
48578;SDS011;34357;51.948;6.132;2022-09-28T12:05:50;1.42;;;0.40;;
48578;SDS011;34357;51.948;6.132;2022-09-28T12:08:28;0.98;;;0.40;;
48578;SDS011;34357;51.948;6.132;2022-09-28T12:11:23;1.73;;;0.43;;
48578;SDS011;34357;51.948;6.132;2022-09-28T12:14:17;0.38;;;0.22;;
48578;SDS011;34357;51.948;6.132;2022-09-28T12:16:59;2.83;;;0.47;;
48578;SDS011;34357;51.948;6.132;2022-09-28T12:19:54;4.57;;;0.68;;
48578;SDS011;34357;51.948;6.132;2022-09-28T12:23:23;1.73;;;0.30;;
48578;SDS011;34357;51.948;6.132;2022-09-28T12:25:43;1.05;;;0.40;;
48578;SDS011;34357;51.948;6.132;2022-09-28T12:28:37;2.85;;;0.30;;
48578;SDS011;34357;51.948;6.132;2022-09-28T12:31:10;2.10;;;0.28;;
48578;SDS011;34357;51.948;6.132;2022-09-28T12:33:44;0.70;;;0.30;;
48578;SDS011;34357;51.948;6.132;2022-09-28T12:41:43;0.90;;;0.30;;
48578;SDS011;34357;51.948;6.132;2022-09-28T12:50:14;1.20;;;0.35;;
48578;SDS011;34357;51.948;6.132;2022-09-28T12:58:44;0.80;;;0.30;;
48578;SDS011;34357;51.948;6.132;2022-09-28T13:06:23;1.38;;;0.30;;
48578;SDS011;34357;51.948;6.132;2022-09-28T13:09:19;1.05;;;0.40;;
48578;SDS011;34357;51.948;6.132;2022-09-28T13:17:37;1.88;;;0.32;;
48578;SDS011;34357;51.948;6.132;2022-09-28T13:20:36;1.38;;;0.65;;
48578;SDS011;34357;51.948;6.132;2022-09-28T13:23:10;1.77;;;0.40;;
48578;SDS011;34357;51.948;6.132;2022-09-28T13:25:40;2.53;;;0.75;;
48578;SDS011;34357;51.948;6.132;2022-09-28T13:28:11;1.25;;;0.43;;
48578;SDS011;34357;51.948;6.132;2022-09-28T13:30:39;0.90;;;0.40;;
48578;SDS011;34357;51.948;6.132;2022-09-28T13:33:09;1.60;;;0.30;;
48578;SDS011;34357;51.948;6.132;2022-09-28T13:35:43;0.30;;;0.30;;
48578;SDS011;34357;51.948;6.132;2022-09-28T13:41:23;0.73;;;0.28;;
48578;SDS011;34357;51.948;6.132;2022-09-28T13:43:32;1.40;;;0.22;;
48578;SDS011;34357;51.948;6.132;2022-09-28T13:51:42;1.00;;;0.20;;
48578;SDS011;34357;51.948;6.132;2022-09-28T13:54:39;1.45;;;0.32;;
48578;SDS011;34357;51.948;6.132;2022-09-28T13:57:21;0.30;;;0.20;;
48578;SDS011;34357;51.948;6.132;2022-09-28T14:05:31;0.88;;;0.22;;
48578;SDS011;34357;51.948;6.132;2022-09-28T14:07:56;1.05;;;0.30;;
48578;SDS011;34357;51.948;6.132;2022-09-28T14:10:50;4.15;;;0.40;;
48578;SDS011;34357;51.948;6.132;2022-09-28T14:18:51;0.30;;;0.30;;
48578;SDS011;34357;51.948;6.132;2022-09-28T14:29:29;1.00;;;0.57;;
48578;SDS011;34357;51.948;6.132;2022-09-28T14:40:23;3.08;;;1.30;;
48578;SDS011;34357;51.948;6.132;2022-09-28T14:43:26;2.85;;;1.48;;
48578;SDS011;34357;51.948;6.132;2022-09-28T14:48:51;1.70;;;1.10;;
48578;SDS011;34357;51.948;6.132;2022-09-28T14:56:37;1.63;;;0.60;;
48578;SDS011;34357;51.948;6.132;2022-09-28T14:59:04;2.15;;;0.85;;
48578;SDS011;34357;51.948;6.132;2022-09-28T15:01:31;1.05;;;0.55;;
48578;SDS011;34357;51.948;6.132;2022-09-28T15:04:03;5.47;;;0.50;;
48578;SDS011;34357;51.948;6.132;2022-09-28T15:09:27;1.08;;;0.38;;
48578;SDS011;34357;51.948;6.132;2022-09-28T15:12:01;1.95;;;0.60;;
48578;SDS011;34357;51.948;6.132;2022-09-28T15:14:32;0.90;;;0.50;;
48578;SDS011;34357;51.948;6.132;2022-09-28T15:17:00;1.48;;;0.47;;
48578;SDS011;34357;51.948;6.132;2022-09-28T15:22:20;1.85;;;0.75;;
48578;SDS011;34357;51.948;6.132;2022-09-28T15:24:53;2.20;;;1.20;;
48578;SDS011;34357;51.948;6.132;2022-09-28T15:27:24;3.55;;;0.75;;
48578;SDS011;34357;51.948;6.132;2022-09-28T15:30:28;2.53;;;1.38;;
48578;SDS011;34357;51.948;6.132;2022-09-28T15:32:56;2.80;;;1.10;;
48578;SDS011;34357;51.948;6.132;2022-09-28T15:35:48;1.70;;;0.88;;
48578;SDS011;34357;51.948;6.132;2022-09-28T15:38:32;2.70;;;0.95;;
48578;SDS011;34357;51.948;6.132;2022-09-28T15:41:02;3.22;;;1.10;;
48578;SDS011;34357;51.948;6.132;2022-09-28T15:43:30;1.75;;;0.85;;
48578;SDS011;34357;51.948;6.132;2022-09-28T15:46:06;2.88;;;1.13;;
48578;SDS011;34357;51.948;6.132;2022-09-28T15:48:56;2.85;;;1.05;;
48578;SDS011;34357;51.948;6.132;2022-09-28T15:51:24;1.92;;;0.88;;
48578;SDS011;34357;51.948;6.132;2022-09-28T15:54:00;5.47;;;2.25;;
48578;SDS011;34357;51.948;6.132;2022-09-28T15:56:51;2.40;;;0.68;;
48578;SDS011;34357;51.948;6.132;2022-09-28T15:59:33;2.05;;;0.98;;
48578;SDS011;34357;51.948;6.132;2022-09-28T16:02:02;1.38;;;0.40;;
48578;SDS011;34357;51.948;6.132;2022-09-28T16:07:21;0.85;;;0.38;;
48578;SDS011;34357;51.948;6.132;2022-09-28T16:12:31;2.85;;;0.50;;
48578;SDS011;34357;51.948;6.132;2022-09-28T16:15:05;1.35;;;0.60;;
48578;SDS011;34357;51.948;6.132;2022-09-28T16:17:42;1.48;;;0.68;;
48578;SDS011;34357;51.948;6.132;2022-09-28T16:20:20;1.77;;;0.50;;
48578;SDS011;34357;51.948;6.132;2022-09-28T16:22:56;1.35;;;0.63;;
48578;SDS011;34357;51.948;6.132;2022-09-28T16:25:30;1.73;;;0.38;;
48578;SDS011;34357;51.948;6.132;2022-09-28T16:27:59;2.13;;;0.60;;
48578;SDS011;34357;51.948;6.132;2022-09-28T16:30:26;2.08;;;0.70;;
48578;SDS011;34357;51.948;6.132;2022-09-28T16:38:00;1.27;;;0.50;;
48578;SDS011;34357;51.948;6.132;2022-09-28T16:40:27;4.50;;;0.70;;
48578;SDS011;34357;51.948;6.132;2022-09-28T16:42:56;2.55;;;0.70;;
48578;SDS011;34357;51.948;6.132;2022-09-28T16:45:26;1.05;;;0.55;;
48578;SDS011;34357;51.948;6.132;2022-09-28T16:47:54;1.05;;;0.50;;
48578;SDS011;34357;51.948;6.132;2022-09-28T16:50:21;1.77;;;0.57;;
48578;SDS011;34357;51.948;6.132;2022-09-28T16:52:48;1.20;;;0.55;;
48578;SDS011;34357;51.948;6.132;2022-09-28T16:55:53;1.83;;;0.70;;
48578;SDS011;34357;51.948;6.132;2022-09-28T16:58:19;1.42;;;0.65;;
48578;SDS011;34357;51.948;6.132;2022-09-28T17:00:46;1.33;;;0.75;;
48578;SDS011;34357;51.948;6.132;2022-09-28T17:03:15;2.15;;;1.10;;
48578;SDS011;34357;51.948;6.132;2022-09-28T17:05:42;2.38;;;0.82;;
48578;SDS011;34357;51.948;6.132;2022-09-28T17:08:11;2.17;;;1.00;;
48578;SDS011;34357;51.948;6.132;2022-09-28T17:10:57;2.92;;;1.00;;
48578;SDS011;34357;51.948;6.132;2022-09-28T17:13:27;6.68;;;1.00;;
48578;SDS011;34357;51.948;6.132;2022-09-28T17:15:58;2.25;;;1.02;;
48578;SDS011;34357;51.948;6.132;2022-09-28T17:18:25;1.77;;;0.98;;
48578;SDS011;34357;51.948;6.132;2022-09-28T17:20:52;2.30;;;1.17;;
48578;SDS011;34357;51.948;6.132;2022-09-28T17:23:20;1.40;;;0.90;;
48578;SDS011;34357;51.948;6.132;2022-09-28T17:25:46;2.65;;;0.82;;
48578;SDS011;34357;51.948;6.132;2022-09-28T17:28:17;2.63;;;1.02;;
48578;SDS011;34357;51.948;6.132;2022-09-28T17:30:45;3.15;;;0.90;;
48578;SDS011;34357;51.948;6.132;2022-09-28T17:33:11;2.22;;;0.90;;
48578;SDS011;34357;51.948;6.132;2022-09-28T17:35:37;1.17;;;0.82;;
48578;SDS011;34357;51.948;6.132;2022-09-28T17:38:03;3.05;;;1.40;;
48578;SDS011;34357;51.948;6.132;2022-09-28T17:40:29;4.30;;;1.63;;
48578;SDS011;34357;51.948;6.132;2022-09-28T17:42:55;4.03;;;1.25;;
48578;SDS011;34357;51.948;6.132;2022-09-28T17:45:24;1.88;;;1.42;;
48578;SDS011;34357;51.948;6.132;2022-09-28T17:47:53;2.38;;;1.50;;
48578;SDS011;34357;51.948;6.132;2022-09-28T17:50:24;2.25;;;1.40;;
48578;SDS011;34357;51.948;6.132;2022-09-28T17:52:52;2.05;;;1.40;;
48578;SDS011;34357;51.948;6.132;2022-09-28T17:55:19;2.15;;;1.30;;
48578;SDS011;34357;51.948;6.132;2022-09-28T17:57:52;1.90;;;1.50;;
48578;SDS011;34357;51.948;6.132;2022-09-28T18:00:19;3.85;;;1.50;;
48578;SDS011;34357;51.948;6.132;2022-09-28T18:02:45;2.90;;;1.33;;
48578;SDS011;34357;51.948;6.132;2022-09-28T18:05:11;2.05;;;1.50;;
48578;SDS011;34357;51.948;6.132;2022-09-28T18:07:39;2.67;;;1.63;;
48578;SDS011;34357;51.948;6.132;2022-09-28T18:10:06;4.50;;;2.85;;
48578;SDS011;34357;51.948;6.132;2022-09-28T18:12:43;6.22;;;2.80;;
48578;SDS011;34357;51.948;6.132;2022-09-28T18:15:10;5.45;;;3.22;;
48578;SDS011;34357;51.948;6.132;2022-09-28T18:17:36;5.72;;;2.95;;
48578;SDS011;34357;51.948;6.132;2022-09-28T18:20:03;4.15;;;3.75;;
48578;SDS011;34357;51.948;6.132;2022-09-28T18:22:33;5.82;;;3.13;;
48578;SDS011;34357;51.948;6.132;2022-09-28T18:24:58;4.63;;;2.63;;
48578;SDS011;34357;51.948;6.132;2022-09-28T18:27:26;6.10;;;3.40;;
48578;SDS011;34357;51.948;6.132;2022-09-28T18:29:53;5.10;;;3.42;;